Time;durP1;ratioP1;P1;durP2;ratioP2;P2;SDS_P1;SDS_P2;PMS_P1;PMS_P2;Temp;Humidity;BMP_temperature;BMP_pressure;BME280_temperature;BME280_humidity;BME280_pressure;Samples;Min_cycle;Max_cycle;Signal;HPM_P1;HPM_P2
2023/03/29 00:00:35;;;;;;;5.30;3.40;;;2.30;99.90;;;;;;4974635;28;20238;-73
2023/03/29 00:03:03;;;;;;;5.07;3.60;;;2.30;99.90;;;;;;4975133;28;20214;-73
2023/03/29 00:05:33;;;;;;;5.57;3.63;;;2.30;99.90;;;;;;4979535;28;20225;-74
2023/03/29 00:08:02;;;;;;;5.03;3.53;;;2.40;99.90;;;;;;4984252;28;20211;-73
2023/03/29 00:10:32;;;;;;;4.90;3.60;;;2.40;99.90;;;;;;4975275;28;20219;-72
2023/03/29 00:13:01;;;;;;;5.73;3.60;;;2.40;99.90;;;;;;4974851;28;20214;-76
2023/03/29 00:15:30;;;;;;;4.97;3.47;;;2.40;99.90;;;;;;4983470;28;20215;-76
2023/03/29 00:17:59;;;;;;;6.07;3.87;;;2.40;99.90;;;;;;4994165;28;20245;-73
2023/03/29 00:20:27;;;;;;;4.67;3.33;;;2.40;99.90;;;;;;4994477;28;20215;-73
2023/03/29 00:22:56;;;;;;;5.73;2.90;;;2.50;99.90;;;;;;4993921;28;20214;-75
2023/03/29 00:25:24;;;;;;;6.33;3.47;;;2.50;99.90;;;;;;4981265;28;20339;-73
2023/03/29 00:27:52;;;;;;;4.33;3.23;;;2.50;99.90;;;;;;4974613;28;20213;-73
2023/03/29 00:30:21;;;;;;;4.30;2.90;;;2.50;99.90;;;;;;4974363;28;20673;-73
2023/03/29 00:32:50;;;;;;;4.23;3.10;;;2.50;99.90;;;;;;4980333;28;20297;-73
2023/03/29 00:35:18;;;;;;;4.73;3.40;;;2.50;99.90;;;;;;4993500;28;20206;-73
2023/03/29 00:37:49;;;;;;;4.53;3.00;;;2.50;99.90;;;;;;4993929;28;20214;-74
2023/03/29 00:40:18;;;;;;;4.60;2.83;;;2.60;99.90;;;;;;4991813;28;20195;-74
2023/03/29 00:42:47;;;;;;;4.53;2.90;;;2.50;99.90;;;;;;4974118;28;20211;-72
2023/03/29 00:45:19;;;;;;;5.63;2.87;;;2.50;99.90;;;;;;4974317;28;20213;-73
2023/03/29 00:47:51;;;;;;;4.77;2.80;;;2.60;99.90;;;;;;4974452;28;20247;-73
2023/03/29 00:50:24;;;;;;;3.10;2.53;;;2.60;99.90;;;;;;4982585;28;20206;-73
2023/03/29 00:52:59;;;;;;;3.20;2.60;;;2.60;99.90;;;;;;4993269;28;20265;-73
2023/03/29 00:55:32;;;;;;;4.57;2.80;;;2.60;99.90;;;;;;4991125;28;20214;-73
2023/03/29 00:58:01;;;;;;;3.33;2.50;;;2.60;99.90;;;;;;4993439;28;20234;-74
2023/03/29 01:00:33;;;;;;;3.77;2.70;;;2.90;99.90;;;;;;4993662;28;20237;-74
2023/03/29 01:03:12;;;;;;;2.97;2.60;;;2.70;99.90;;;;;;4992917;28;20287;-73
2023/03/29 01:05:44;;;;;;;3.87;2.60;;;2.80;99.90;;;;;;4981310;28;20573;-74
2023/03/29 01:08:19;;;;;;;4.50;2.80;;;2.80;99.90;;;;;;4973528;28;20202;-73
2023/03/29 01:10:52;;;;;;;3.33;2.53;;;2.90;99.90;;;;;;4974022;28;20294;-72
2023/03/29 01:13:26;;;;;;;3.70;2.70;;;2.90;99.90;;;;;;4976154;28;20217;-74
2023/03/29 01:15:56;;;;;;;3.87;2.47;;;3.00;99.90;;;;;;4973528;28;20213;-74
2023/03/29 01:18:25;;;;;;;3.60;2.60;;;3.00;99.90;;;;;;4973359;28;20302;-74
2023/03/29 01:21:08;;;;;;;3.47;2.43;;;3.00;99.90;;;;;;4973086;28;20238;-74
2023/03/29 01:24:06;;;;;;;2.60;2.40;;;3.10;99.90;;;;;;4973338;28;20768;-74
2023/03/29 01:26:47;;;;;;;4.33;2.47;;;3.10;99.90;;;;;;4973532;28;20215;-74
2023/03/29 01:29:24;;;;;;;3.33;2.50;;;3.10;99.90;;;;;;4973551;28;20242;-76
2023/03/29 01:31:57;;;;;;;5.17;2.20;;;3.10;99.90;;;;;;4977643;28;20221;-74
2023/03/29 01:34:33;;;;;;;3.30;2.37;;;3.20;99.90;;;;;;4993328;28;20735;-76
2023/03/29 01:37:07;;;;;;;3.07;2.17;;;3.20;99.90;;;;;;5004825;28;20214;-74
2023/03/29 01:39:35;;;;;;;2.40;2.20;;;3.10;99.90;;;;;;4996493;28;20744;-75
2023/03/29 01:42:15;;;;;;;3.57;2.20;;;3.20;99.90;;;;;;4991805;28;20210;-75
2023/03/29 01:44:52;;;;;;;4.20;2.43;;;3.20;99.90;;;;;;4992576;28;20210;-75
2023/03/29 01:47:30;;;;;;;3.10;2.17;;;3.20;99.90;;;;;;4992840;28;20197;-75
2023/03/29 01:50:06;;;;;;;3.17;2.00;;;3.20;99.90;;;;;;4977318;28;20214;-76
2023/03/29 01:52:39;;;;;;;4.13;2.27;;;3.20;99.90;;;;;;4973263;28;20282;-76
2023/03/29 01:55:11;;;;;;;2.57;2.10;;;3.10;99.90;;;;;;4977253;28;20238;-75
2023/03/29 01:57:43;;;;;;;2.77;2.30;;;3.10;99.90;;;;;;4992720;28;20238;-74
2023/03/29 02:00:16;;;;;;;3.00;2.10;;;3.10;99.90;;;;;;4992911;28;20578;-75
2023/03/29 02:02:48;;;;;;;2.73;2.10;;;3.10;99.90;;;;;;4987176;28;20570;-74
2023/03/29 02:05:17;;;;;;;3.53;2.10;;;3.20;99.90;;;;;;4973078;28;20618;-75
2023/03/29 02:07:47;;;;;;;2.50;2.30;;;3.20;99.90;;;;;;4972975;28;20698;-75
2023/03/29 02:10:17;;;;;;;2.73;2.30;;;3.10;99.90;;;;;;4973565;28;20292;-74
2023/03/29 02:12:45;;;;;;;3.07;2.37;;;3.20;99.90;;;;;;4973373;28;20302;-75
2023/03/29 02:15:18;;;;;;;2.90;2.30;;;3.20;99.90;;;;;;4987827;28;20313;-73
2023/03/29 02:17:48;;;;;;;2.20;2.00;;;3.10;99.90;;;;;;4992491;28;20225;-75
2023/03/29 02:20:21;;;;;;;4.50;2.13;;;3.10;99.90;;;;;;4992377;28;20827;-75
2023/03/29 02:22:57;;;;;;;3.03;1.97;;;3.10;99.90;;;;;;4985194;28;20210;-74
2023/03/29 02:25:25;;;;;;;2.70;2.30;;;3.10;99.90;;;;;;4973221;28;20205;-75
2023/03/29 02:27:54;;;;;;;3.50;2.57;;;3.10;99.90;;;;;;4980505;28;20242;-74
2023/03/29 02:30:27;;;;;;;4.30;2.30;;;3.10;99.90;;;;;;4976660;28;20246;-74
2023/03/29 02:33:00;;;;;;;4.00;2.13;;;3.10;99.90;;;;;;4976566;28;20207;-75
2023/03/29 02:35:35;;;;;;;3.40;2.27;;;3.10;99.90;;;;;;4977024;28;20249;-75
2023/03/29 02:38:07;;;;;;;4.10;2.30;;;3.10;99.90;;;;;;4976853;28;20210;-75
2023/03/29 02:40:36;;;;;;;3.60;2.37;;;3.10;99.90;;;;;;4990246;28;20726;-75
2023/03/29 02:43:07;;;;;;;3.77;2.40;;;3.10;99.90;;;;;;4995888;28;20214;-75
2023/03/29 02:45:37;;;;;;;3.90;2.50;;;3.10;99.90;;;;;;4996142;28;20393;-75
2023/03/29 02:48:11;;;;;;;4.77;2.63;;;3.10;99.90;;;;;;4995811;28;20206;-75
2023/03/29 02:50:42;;;;;;;4.00;2.30;;;3.10;99.90;;;;;;4982112;28;20238;-74
2023/03/29 02:53:16;;;;;;;3.80;2.10;;;3.00;99.90;;;;;;4976060;28;20207;-76
2023/03/29 02:55:45;;;;;;;3.73;2.40;;;3.00;99.90;;;;;;4976306;28;20215;-75
2023/03/29 02:58:14;;;;;;;3.47;2.10;;;3.10;99.90;;;;;;4975523;28;20278;-75
2023/03/29 03:00:45;;;;;;;2.77;2.10;;;3.10;99.90;;;;;;4975870;28;20219;-73
2023/03/29 03:03:15;;;;;;;3.10;2.20;;;3.10;99.90;;;;;;4976121;28;20199;-75
2023/03/29 03:05:43;;;;;;;2.73;2.43;;;3.00;99.90;;;;;;4976030;28;20234;-74
2023/03/29 03:08:12;;;;;;;3.30;2.07;;;3.00;99.90;;;;;;4975830;28;20211;-74
2023/03/29 03:10:40;;;;;;;4.67;2.17;;;3.00;99.90;;;;;;4976121;28;20229;-73
2023/03/29 03:13:08;;;;;;;4.70;2.17;;;2.90;99.90;;;;;;4975864;28;20215;-75
2023/03/29 03:15:36;;;;;;;2.20;2.00;;;2.90;99.90;;;;;;4975711;28;20211;-74
2023/03/29 03:18:05;;;;;;;2.20;2.00;;;2.90;99.90;;;;;;4976253;28;20233;-74
2023/03/29 03:20:34;;;;;;;2.53;2.03;;;2.90;99.90;;;;;;4975572;28;20230;-74
2023/03/29 03:23:02;;;;;;;3.13;1.90;;;2.90;99.90;;;;;;4975337;28;20743;-76
2023/03/29 03:25:31;;;;;;;2.20;1.90;;;2.80;99.90;;;;;;4975693;28;20250;-73
2023/03/29 03:27:59;;;;;;;1.73;1.63;;;2.80;99.90;;;;;;4975669;28;20215;-74
2023/03/29 03:30:28;;;;;;;2.40;1.80;;;2.80;99.90;;;;;;4975425;28;20229;-74
2023/03/29 03:32:56;;;;;;;1.90;1.70;;;2.80;99.90;;;;;;4975579;28;20215;-73
2023/03/29 03:35:26;;;;;;;3.00;1.80;;;2.80;99.90;;;;;;4975493;28;20559;-75
2023/03/29 03:37:54;;;;;;;2.40;1.60;;;2.80;99.90;;;;;;4975520;28;20238;-74
2023/03/29 03:40:22;;;;;;;2.60;1.57;;;2.80;99.90;;;;;;4974715;28;20231;-73
2023/03/29 03:42:50;;;;;;;1.70;1.60;;;2.70;99.90;;;;;;4975435;28;20306;-74
2023/03/29 03:45:19;;;;;;;2.60;1.70;;;2.80;99.90;;;;;;4975742;28;20221;-73
2023/03/29 03:47:47;;;;;;;1.90;1.60;;;2.80;99.90;;;;;;4975471;28;20221;-72
2023/03/29 03:50:15;;;;;;;2.83;1.80;;;2.80;99.90;;;;;;4975590;28;20241;-74
2023/03/29 03:52:45;;;;;;;1.80;1.60;;;2.70;99.90;;;;;;4975119;28;20221;-73
2023/03/29 03:55:13;;;;;;;2.57;1.70;;;2.80;99.90;;;;;;4975800;28;20211;-75
2023/03/29 03:57:41;;;;;;;1.83;1.73;;;2.70;99.90;;;;;;4975255;28;20325;-73
2023/03/29 04:00:17;;;;;;;2.20;1.53;;;2.70;99.90;;;;;;4975801;28;20237;-73
2023/03/29 04:02:47;;;;;;;2.20;1.70;;;2.70;99.90;;;;;;4975169;28;20191;-74
2023/03/29 04:05:16;;;;;;;1.77;1.60;;;2.70;99.90;;;;;;4975340;28;20617;-75
2023/03/29 04:07:45;;;;;;;4.77;1.80;;;2.60;99.90;;;;;;4975248;28;20226;-75
2023/03/29 04:10:14;;;;;;;2.30;1.93;;;2.60;99.90;;;;;;4975019;28;20298;-73
2023/03/29 04:12:42;;;;;;;1.83;1.60;;;2.70;99.90;;;;;;4974370;28;20249;-74
2023/03/29 04:15:11;;;;;;;2.43;1.87;;;2.80;99.90;;;;;;4982768;28;20269;-72
2023/03/29 04:17:39;;;;;;;2.30;1.80;;;2.60;99.90;;;;;;4994635;28;20214;-73
2023/03/29 04:20:10;;;;;;;2.23;1.77;;;2.60;99.90;;;;;;4994359;28;20214;-73
2023/03/29 04:22:39;;;;;;;2.53;1.60;;;2.60;99.90;;;;;;4994219;28;20593;-75
2023/03/29 04:25:10;;;;;;;2.73;1.83;;;2.50;99.90;;;;;;4994364;28;20209;-76
2023/03/29 04:27:39;;;;;;;2.93;1.70;;;2.70;99.90;;;;;;4994327;28;20254;-75
2023/03/29 04:30:08;;;;;;;2.07;1.87;;;2.50;99.90;;;;;;4988713;28;20226;-74
2023/03/29 04:32:36;;;;;;;2.07;1.67;;;2.60;99.90;;;;;;4975278;28;20554;-72
2023/03/29 04:35:05;;;;;;;2.60;2.10;;;2.60;99.90;;;;;;4974537;28;20306;-75
2023/03/29 04:37:34;;;;;;;1.83;1.60;;;2.50;99.90;;;;;;4974612;28;20210;-74
2023/03/29 04:40:03;;;;;;;2.23;1.83;;;2.50;99.90;;;;;;4976532;28;20689;-75
2023/03/29 04:42:33;;;;;;;1.80;1.70;;;2.50;99.90;;;;;;4993854;28;20308;-74
2023/03/29 04:45:01;;;;;;;2.57;1.80;;;2.60;99.90;;;;;;4978641;28;20216;-75
2023/03/29 04:47:31;;;;;;;2.10;1.90;;;2.50;99.90;;;;;;4974441;28;20215;-75
2023/03/29 04:49:59;;;;;;;2.13;1.90;;;2.50;99.90;;;;;;4976155;28;20206;-75
2023/03/29 04:52:31;;;;;;;3.17;2.07;;;2.50;99.90;;;;;;4982611;28;20237;-73
2023/03/29 04:55:00;;;;;;;1.90;1.70;;;2.50;99.90;;;;;;4980034;28;20262;-74
2023/03/29 04:57:29;;;;;;;1.77;1.50;;;2.50;99.90;;;;;;4993493;28;20329;-73
2023/03/29 04:59:58;;;;;;;2.53;1.60;;;2.60;99.90;;;;;;4993406;28;20677;-73
2023/03/29 05:02:29;;;;;;;2.00;1.80;;;2.60;99.90;;;;;;4980567;28;20276;-76
2023/03/29 05:04:57;;;;;;;2.10;1.90;;;2.60;99.90;;;;;;4993783;28;20281;-73
2023/03/29 05:07:25;;;;;;;2.03;1.77;;;2.60;99.90;;;;;;4993893;28;20547;-75
2023/03/29 05:09:53;;;;;;;3.33;2.00;;;2.60;99.90;;;;;;4989385;28;20610;-76
2023/03/29 05:12:22;;;;;;;2.13;1.90;;;2.70;99.90;;;;;;4973775;28;20832;-74
2023/03/29 05:14:50;;;;;;;1.90;1.40;;;2.70;99.90;;;;;;4974199;28;20222;-73
2023/03/29 05:17:20;;;;;;;3.20;1.50;;;2.80;99.90;;;;;;4974078;28;20566;-75
2023/03/29 05:19:48;;;;;;;1.80;1.50;;;2.80;99.90;;;;;;4973487;28;20570;-73
2023/03/29 05:22:16;;;;;;;2.17;1.67;;;2.90;99.90;;;;;;4973782;28;20330;-76
2023/03/29 05:24:44;;;;;;;2.10;1.50;;;2.90;99.90;;;;;;4973878;28;20570;-73
2023/03/29 05:27:13;;;;;;;1.60;1.50;;;3.00;99.90;;;;;;4974193;28;20305;-73
2023/03/29 05:29:41;;;;;;;3.70;1.70;;;3.10;99.90;;;;;;4973629;28;20676;-73
2023/03/29 05:32:09;;;;;;;2.23;1.70;;;3.10;99.90;;;;;;4973435;28;20287;-74
2023/03/29 05:34:38;;;;;;;1.63;1.53;;;3.20;99.90;;;;;;4974030;28;20644;-74
2023/03/29 05:37:07;;;;;;;2.50;1.63;;;3.20;99.90;;;;;;4973735;28;20225;-74
2023/03/29 05:39:36;;;;;;;1.80;1.60;;;3.30;99.90;;;;;;4974150;28;20210;-72
2023/03/29 05:42:05;;;;;;;2.73;1.57;;;3.30;99.90;;;;;;4973513;28;20577;-74
2023/03/29 05:44:34;;;;;;;4.10;2.00;;;3.30;99.90;;;;;;4985137;28;20216;-74
2023/03/29 05:47:02;;;;;;;2.63;1.93;;;3.40;99.90;;;;;;4993282;28;20217;-74
2023/03/29 05:49:30;;;;;;;1.80;1.70;;;3.50;99.90;;;;;;4992852;28;20713;-75
2023/03/29 05:52:00;;;;;;;3.60;1.87;;;3.50;99.90;;;;;;4981574;28;20211;-73
2023/03/29 05:54:28;;;;;;;2.00;1.73;;;3.60;99.90;;;;;;4973867;28;20210;-73
2023/03/29 05:56:56;;;;;;;2.90;1.77;;;3.60;99.90;;;;;;4976655;28;20266;-73
2023/03/29 05:59:27;;;;;;;1.70;1.60;;;3.70;99.90;;;;;;4989721;28;20238;-74
2023/03/29 06:01:56;;;;;;;3.87;1.90;;;3.80;99.90;;;;;;4992104;28;20240;-74
2023/03/29 06:04:25;;;;;;;3.23;1.43;;;3.80;99.90;;;;;;4994851;28;20639;-73
2023/03/29 06:06:53;;;;;;;2.17;1.60;;;3.90;99.90;;;;;;4979626;28;20253;-73
2023/03/29 06:09:24;;;;;;;3.20;1.57;;;3.90;99.90;;;;;;4976119;28;20221;-73
2023/03/29 06:11:55;;;;;;;2.63;1.47;;;4.00;99.90;;;;;;4975892;28;20191;-74
2023/03/29 06:14:23;;;;;;;2.53;1.43;;;4.10;99.90;;;;;;4975440;28;20210;-75
2023/03/29 06:16:52;;;;;;;1.70;1.50;;;4.10;99.90;;;;;;4975648;28;20311;-74
2023/03/29 06:19:20;;;;;;;1.60;1.50;;;4.20;99.90;;;;;;4975534;28;20435;-74
2023/03/29 06:21:48;;;;;;;3.00;1.60;;;4.30;99.90;;;;;;4976144;28;20318;-74
2023/03/29 06:24:16;;;;;;;3.00;1.60;;;4.30;99.90;;;;;;4977085;28;20250;-73
2023/03/29 06:26:46;;;;;;;2.43;1.77;;;4.30;99.90;;;;;;4977252;28;20322;-76
2023/03/29 06:29:14;;;;;;;2.47;1.73;;;4.40;99.90;;;;;;4977017;28;20211;-74
2023/03/29 06:31:42;;;;;;;2.17;1.97;;;4.50;99.90;;;;;;4993141;28;20642;-75
2023/03/29 06:34:12;;;;;;;4.77;2.20;;;4.50;99.90;;;;;;4995761;28;20212;-74
2023/03/29 06:36:40;;;;;;;5.17;1.90;;;4.50;99.90;;;;;;4996356;28;20571;-73
2023/03/29 06:39:09;;;;;;;2.27;1.87;;;4.50;99.90;;;;;;4995915;28;20218;-75
2023/03/29 06:41:38;;;;;;;3.17;2.07;;;4.70;99.90;;;;;;4991299;28;20286;-72
2023/03/29 06:44:07;;;;;;;3.13;1.80;;;4.60;99.90;;;;;;4996716;28;20253;-76
2023/03/29 06:46:36;;;;;;;3.87;1.90;;;4.70;99.90;;;;;;4994743;28;20297;-74
2023/03/29 06:49:04;;;;;;;4.07;1.90;;;4.70;99.90;;;;;;4994697;28;20218;-75
2023/03/29 06:51:33;;;;;;;3.10;1.97;;;4.70;99.90;;;;;;4995534;28;20250;-73
2023/03/29 06:54:03;;;;;;;2.07;1.80;;;4.80;99.90;;;;;;4995346;28;20306;-75
2023/03/29 06:56:31;;;;;;;4.00;1.80;;;4.80;99.90;;;;;;4995448;28;20791;-74
2023/03/29 06:58:59;;;;;;;3.33;1.90;;;4.90;99.90;;;;;;4993191;28;20356;-73
2023/03/29 07:01:28;;;;;;;3.47;1.67;;;4.90;99.90;;;;;;4997303;28;20206;-74
2023/03/29 07:04:03;;;;;;;2.63;1.70;;;5.00;99.90;;;;;;4993993;28;20289;-75
2023/03/29 07:06:32;;;;;;;2.77;1.80;;;5.20;99.90;;;;;;4995899;28;20297;-72
2023/03/29 07:09:00;;;;;;;2.10;1.40;;;5.40;99.90;;;;;;4995948;28;20203;-75
2023/03/29 07:11:29;;;;;;;4.93;1.60;;;5.60;99.90;;;;;;4995512;28;20300;-75
2023/03/29 07:13:57;;;;;;;3.47;1.83;;;5.90;99.90;;;;;;4991105;28;20292;-73
2023/03/29 07:16:26;;;;;;;1.83;1.57;;;6.20;99.90;;;;;;4993793;28;20297;-74
2023/03/29 07:18:56;;;;;;;3.27;1.30;;;6.50;99.90;;;;;;4995291;28;20205;-74
2023/03/29 07:21:25;;;;;;;2.17;1.50;;;6.90;99.90;;;;;;4995253;28;20218;-75
2023/03/29 07:23:53;;;;;;;3.30;1.67;;;7.20;99.90;;;;;;4994813;28;20215;-74
2023/03/29 07:26:21;;;;;;;3.40;1.53;;;7.40;99.90;;;;;;4992100;28;20215;-75
2023/03/29 07:28:57;;;;;;;5.67;2.07;;;7.70;99.90;;;;;;4993369;28;20225;-74
2023/03/29 07:31:28;;;;;;;6.27;1.83;;;7.80;99.90;;;;;;4994844;28;20246;-73
2023/03/29 07:33:59;;;;;;;3.13;1.50;;;8.00;99.90;;;;;;4994866;28;20594;-75
2023/03/29 07:36:27;;;;;;;1.90;1.40;;;8.20;99.90;;;;;;4986540;28;20665;-76
2023/03/29 07:38:56;;;;;;;3.00;1.70;;;8.20;99.90;;;;;;4979648;28;20675;-75
2023/03/29 07:41:24;;;;;;;4.40;1.50;;;8.30;99.90;;;;;;4994567;28;20672;-75
2023/03/29 07:43:53;;;;;;;4.17;2.13;;;8.40;99.90;;;;;;4994090;28;20706;-76
2023/03/29 07:46:21;;;;;;;3.50;2.03;;;8.40;99.90;;;;;;4992185;28;20206;-75
2023/03/29 07:48:49;;;;;;;3.17;1.70;;;8.50;99.90;;;;;;4994757;28;20240;-73
2023/03/29 07:51:19;;;;;;;3.63;1.63;;;8.50;99.90;;;;;;4995192;28;20213;-73
2023/03/29 07:53:47;;;;;;;3.30;1.77;;;8.70;99.90;;;;;;4994563;28;20241;-75
2023/03/29 07:56:16;;;;;;;3.37;1.50;;;8.70;99.90;;;;;;4994351;28;20237;-75
2023/03/29 07:58:45;;;;;;;4.87;1.30;;;8.70;99.90;;;;;;4994404;28;20228;-75
2023/03/29 08:01:14;;;;;;;5.90;1.40;;;8.80;99.90;;;;;;4994796;28;20206;-76
2023/03/29 08:03:46;;;;;;;3.90;1.37;;;8.90;99.90;;;;;;4989851;28;20775;-75
2023/03/29 08:06:16;;;;;;;3.43;1.50;;;8.90;99.90;;;;;;4991817;28;20218;-75
2023/03/29 08:08:45;;;;;;;5.90;1.67;;;9.00;99.90;;;;;;4993943;28;20206;-74
2023/03/29 08:11:14;;;;;;;4.27;1.77;;;9.00;99.90;;;;;;4994486;28;20208;-74
2023/03/29 08:13:42;;;;;;;3.80;1.60;;;9.10;99.90;;;;;;4992988;28;20212;-73
2023/03/29 08:16:10;;;;;;;3.87;1.67;;;9.10;99.90;;;;;;4994413;28;20289;-76
2023/03/29 08:18:38;;;;;;;4.73;1.67;;;9.30;99.90;;;;;;4993749;28;20657;-72
2023/03/29 08:21:07;;;;;;;5.13;1.60;;;9.40;99.90;;;;;;4988909;28;20289;-73
2023/03/29 08:23:35;;;;;;;3.80;1.20;;;9.60;99.90;;;;;;4992380;28;20316;-74
2023/03/29 08:26:07;;;;;;;3.63;1.50;;;9.70;99.90;;;;;;4993670;28;20241;-74
2023/03/29 08:28:38;;;;;;;4.60;1.30;;;9.90;99.90;;;;;;4994399;28;20281;-74
2023/03/29 08:31:08;;;;;;;4.00;1.63;;;10.00;99.90;;;;;;4990108;28;20214;-74
2023/03/29 08:33:37;;;;;;;2.13;1.30;;;9.90;99.90;;;;;;5002122;28;20191;-74
2023/03/29 08:36:06;;;;;;;2.97;1.50;;;9.90;99.90;;;;;;4993693;28;20695;-74
2023/03/29 08:38:34;;;;;;;3.60;1.83;;;9.80;99.90;;;;;;4992758;28;20668;-74
2023/03/29 08:41:18;;;;;;;6.17;3.63;;;9.70;99.90;;;;;;4993375;28;20213;-76
2023/03/29 08:44:00;;;;;;;8.83;5.30;;;9.70;99.90;;;;;;4991807;28;20313;-75
2023/03/29 08:46:36;;;;;;;3.77;1.80;;;9.60;99.90;;;;;;4995204;28;22294;-73
2023/03/29 08:49:06;;;;;;;4.63;3.57;;;9.70;99.90;;;;;;4997561;28;20202;-74
2023/03/29 08:51:38;;;;;;;5.73;3.03;;;9.80;99.90;;;;;;4999117;28;20206;-74
2023/03/29 08:54:11;;;;;;;61.53;49.80;;;9.80;99.90;;;;;;4995206;28;20199;-75
2023/03/29 08:56:44;;;;;;;4.30;1.83;;;9.90;99.90;;;;;;4993134;28;20206;-74
2023/03/29 08:59:19;;;;;;;9.73;2.30;;;10.00;99.90;;;;;;4989662;28;20237;-75
2023/03/29 09:01:50;;;;;;;4.97;2.30;;;10.00;99.90;;;;;;4994035;28;20205;-74
2023/03/29 09:04:23;;;;;;;9.33;2.20;;;10.00;99.90;;;;;;4994778;28;20698;-73
2023/03/29 09:06:51;;;;;;;4.63;3.33;;;10.20;99.90;;;;;;4993212;28;20213;-74
2023/03/29 09:09:22;;;;;;;7.47;3.17;;;10.50;99.90;;;;;;4993157;28;20269;-73
2023/03/29 09:12:03;;;;;;;9.53;5.73;;;10.80;99.90;;;;;;4990868;28;20687;-76
2023/03/29 09:14:47;;;;;;;6.03;4.00;;;11.50;99.90;;;;;;4991316;28;20285;-74
2023/03/29 09:17:31;;;;;;;6.53;1.87;;;12.00;99.90;;;;;;4989633;28;20209;-74
2023/03/29 09:20:12;;;;;;;2.60;1.50;;;12.50;99.90;;;;;;4992479;28;20221;-75
2023/03/29 09:22:47;;;;;;;3.27;1.30;;;12.40;99.90;;;;;;4992143;28;20297;-72
2023/03/29 09:25:22;;;;;;;5.67;1.30;;;12.00;99.90;;;;;;4991615;28;20199;-74
2023/03/29 09:28:00;;;;;;;8.43;1.40;;;12.30;99.90;;;;;;4992965;28;20202;-73
2023/03/29 09:30:31;;;;;;;2.83;1.33;;;13.00;99.90;;;;;;4990549;28;20210;-75
2023/03/29 09:33:06;;;;;;;2.33;1.17;;;13.50;99.90;;;;;;4993095;28;20293;-74
2023/03/29 09:35:38;;;;;;;4.17;1.40;;;14.20;99.90;;;;;;4990203;28;20205;-74
2023/03/29 09:38:09;;;;;;;2.97;1.30;;;15.20;99.90;;;;;;4992248;28;20584;-74
2023/03/29 09:40:42;;;;;;;5.67;3.30;;;16.30;99.90;;;;;;4993226;28;20207;-75
2023/03/29 09:43:16;;;;;;;2.47;1.33;;;17.70;96.30;;;;;;4990851;28;20226;-75
2023/03/29 09:45:50;;;;;;;4.40;1.43;;;17.00;93.30;;;;;;4992176;28;20238;-73
2023/03/29 09:48:20;;;;;;;3.23;1.43;;;16.50;92.50;;;;;;4993212;28;20206;-73
2023/03/29 09:50:51;;;;;;;3.63;1.30;;;15.50;96.20;;;;;;4991192;28;20285;-73
2023/03/29 09:53:24;;;;;;;3.13;1.60;;;14.70;96.60;;;;;;4994195;28;20207;-74
2023/03/29 09:55:54;;;;;;;3.00;2.10;;;14.30;99.20;;;;;;4992415;28;20261;-73
2023/03/29 09:58:27;;;;;;;4.27;1.67;;;14.20;99.80;;;;;;4992988;28;20254;-74
2023/03/29 10:00:58;;;;;;;3.00;1.53;;;13.70;99.90;;;;;;4992780;28;20191;-74
2023/03/29 10:03:30;;;;;;;2.77;1.30;;;13.20;99.90;;;;;;4990030;28;20233;-75
2023/03/29 10:06:00;;;;;;;2.10;1.17;;;13.00;99.90;;;;;;4988936;28;20238;-74
2023/03/29 10:08:30;;;;;;;7.13;1.70;;;12.80;99.90;;;;;;4990002;28;20198;-76
2023/03/29 10:11:00;;;;;;;5.03;1.30;;;12.80;99.90;;;;;;4992353;28;20233;-76
2023/03/29 10:13:33;;;;;;;3.97;1.10;;;12.70;99.90;;;;;;4988679;28;20671;-75
2023/03/29 10:16:03;;;;;;;2.23;1.27;;;12.70;99.90;;;;;;4992228;28;20707;-74
2023/03/29 10:18:33;;;;;;;2.27;1.50;;;12.80;99.90;;;;;;4992602;28;20653;-74
2023/03/29 10:21:04;;;;;;;2.50;1.40;;;12.90;99.90;;;;;;4992178;28;20265;-74
2023/03/29 10:23:34;;;;;;;2.73;1.30;;;13.20;99.90;;;;;;4991506;28;20230;-74
2023/03/29 10:26:04;;;;;;;2.93;1.40;;;13.40;99.90;;;;;;4992357;28;20217;-73
2023/03/29 10:28:36;;;;;;;1.97;1.30;;;13.50;99.90;;;;;;4992680;28;20202;-75
2023/03/29 10:31:06;;;;;;;3.00;1.40;;;13.70;99.90;;;;;;4989631;28;20240;-74
2023/03/29 10:33:36;;;;;;;2.60;1.30;;;14.20;99.90;;;;;;4991827;28;20203;-73
2023/03/29 10:36:07;;;;;;;3.80;1.20;;;14.80;99.40;;;;;;4991585;28;20711;-73
2023/03/29 10:38:37;;;;;;;3.60;1.17;;;14.70;99.80;;;;;;4992697;28;20210;-75
2023/03/29 10:41:09;;;;;;;1.63;1.17;;;14.60;99.20;;;;;;4991890;28;20285;-77
2023/03/29 10:43:44;;;;;;;3.70;1.33;;;14.30;98.40;;;;;;4992154;28;20230;-74
2023/03/29 10:46:20;;;;;;;3.97;1.30;;;14.10;97.90;;;;;;4990737;28;20674;-76
2023/03/29 10:48:51;;;;;;;2.70;1.33;;;14.20;98.00;;;;;;4988839;28;20663;-73
2023/03/29 10:51:19;;;;;;;3.07;1.40;;;14.50;97.60;;;;;;4996169;28;20206;-76
2023/03/29 10:53:48;;;;;;;2.90;1.23;;;15.30;97.40;;;;;;4995842;28;20208;-74
2023/03/29 10:56:38;;;;;;;3.87;1.40;;;15.70;94.40;;;;;;4995893;28;20210;-73
2023/03/29 10:59:28;;;;;;;2.43;1.20;;;16.50;93.90;;;;;;4991959;28;20233;-73
2023/03/29 11:02:28;;;;;;;2.27;1.30;;;17.10;91.40;;;;;;4994399;28;20391;-74
2023/03/29 11:05:09;;;;;;;4.00;1.30;;;17.40;90.00;;;;;;4968923;28;20711;-73
2023/03/29 11:07:49;;;;;;;2.47;1.23;;;16.90;88.90;;;;;;4991333;28;20209;-76
2023/03/29 11:10:32;;;;;;;1.90;1.20;;;16.40;90.20;;;;;;4978214;28;20202;-74
2023/03/29 11:15:56;;;;;;;3.57;1.73;;;15.30;92.60;;;;;;5451652;23;20233;-75
2023/03/29 11:18:40;;;;;;;3.13;1.63;;;15.40;92.80;;;;;;5016280;28;20217;-75
2023/03/29 11:21:17;;;;;;;4.20;1.57;;;15.00;92.60;;;;;;5012643;28;20564;-75
2023/03/29 11:23:53;;;;;;;2.07;1.70;;;14.80;93.10;;;;;;5013799;28;20674;-74
2023/03/29 11:26:25;;;;;;;4.50;1.43;;;14.60;93.50;;;;;;5007324;28;20205;-74
2023/03/29 11:29:01;;;;;;;3.40;1.40;;;14.30;93.80;;;;;;5015148;28;20197;-74
2023/03/29 11:31:38;;;;;;;2.10;1.60;;;14.10;94.60;;;;;;5012532;28;20272;-74
2023/03/29 11:34:20;;;;;;;2.40;1.30;;;13.90;96.50;;;;;;5011890;28;20243;-75
2023/03/29 11:36:54;;;;;;;4.40;1.57;;;13.90;96.40;;;;;;5012019;28;20284;-74
2023/03/29 11:39:30;;;;;;;3.57;1.67;;;13.70;95.80;;;;;;5014733;28;20205;-74
2023/03/29 11:42:08;;;;;;;2.47;1.40;;;13.70;95.40;;;;;;5012281;28;20205;-76
2023/03/29 11:44:38;;;;;;;3.70;1.50;;;13.60;95.30;;;;;;4995993;28;20267;-75
2023/03/29 11:47:13;;;;;;;5.10;1.70;;;13.50;93.90;;;;;;5014536;28;20288;-75
2023/03/29 11:49:48;;;;;;;1.93;1.60;;;13.50;93.70;;;;;;5014607;28;20213;-75
2023/03/29 11:52:19;;;;;;;3.03;1.50;;;13.30;94.80;;;;;;5013225;28;20304;-78
2023/03/29 11:54:52;;;;;;;2.67;1.60;;;13.20;94.20;;;;;;5012009;28;20189;-74
2023/03/29 11:57:25;;;;;;;5.33;1.60;;;13.20;95.00;;;;;;5014906;28;20714;-74
2023/03/29 12:00:01;;;;;;;3.20;1.50;;;13.40;94.50;;;;;;5010968;28;20578;-75
2023/03/29 12:02:36;;;;;;;4.97;2.07;;;13.70;95.40;;;;;;5009879;28;20208;-75
2023/03/29 12:05:13;;;;;;;2.40;1.50;;;13.80;94.10;;;;;;5012033;28;20236;-73
2023/03/29 12:07:48;;;;;;;4.13;1.60;;;13.70;94.80;;;;;;5014424;28;20198;-74
2023/03/29 12:10:20;;;;;;;1.93;1.57;;;13.70;94.40;;;;;;4995501;28;20215;-76
2023/03/29 12:12:55;;;;;;;3.87;1.70;;;13.90;94.60;;;;;;5014189;28;20197;-76
2023/03/29 12:15:25;;;;;;;2.93;1.47;;;13.90;94.70;;;;;;5018980;28;20224;-73
2023/03/29 12:18:02;;;;;;;4.87;1.80;;;13.70;93.90;;;;;;5020037;28;20200;-74
2023/03/29 12:20:35;;;;;;;3.20;1.30;;;13.90;94.90;;;;;;5019952;28;20845;-74
2023/03/29 12:23:05;;;;;;;3.27;1.33;;;13.80;94.80;;;;;;5008841;28;20895;-74
2023/03/29 12:25:45;;;;;;;4.13;1.47;;;13.90;94.40;;;;;;5007754;28;20217;-75
2023/03/29 12:28:25;;;;;;;1.90;1.60;;;14.00;95.20;;;;;;5014299;28;20663;-74
2023/03/29 12:31:03;;;;;;;5.33;1.80;;;14.00;95.90;;;;;;5014147;28;20213;-75
2023/03/29 12:34:00;;;;;;;1.90;1.60;;;14.30;96.20;;;;;;5013917;28;20284;-76
2023/03/29 12:36:54;;;;;;;2.97;2.10;;;14.40;94.70;;;;;;4988748;28;20194;-73
2023/03/29 12:39:24;;;;;;;2.00;1.67;;;14.30;96.40;;;;;;5009271;28;20232;-75
2023/03/29 12:41:52;;;;;;;3.30;1.80;;;14.30;94.80;;;;;;5007015;28;20243;-74
2023/03/29 12:44:23;;;;;;;3.47;1.30;;;14.40;93.70;;;;;;5015533;28;20251;-74
2023/03/29 12:46:58;;;;;;;2.43;1.30;;;14.60;92.70;;;;;;5014634;28;20531;-74
2023/03/29 12:49:32;;;;;;;3.53;1.23;;;14.80;93.60;;;;;;5013934;28;20209;-74
2023/03/29 12:52:03;;;;;;;2.87;1.13;;;15.00;92.50;;;;;;5013698;28;20215;-74
2023/03/29 12:54:33;;;;;;;2.13;1.33;;;15.10;93.30;;;;;;5018003;28;20383;-74
2023/03/29 12:57:18;;;;;;;2.40;1.40;;;15.40;91.10;;;;;;5023778;28;20466;-74
2023/03/29 12:59:47;;;;;;;3.30;1.30;;;15.30;90.50;;;;;;5014392;28;20298;-74
2023/03/29 13:02:36;;;;;;;2.70;1.03;;;15.30;90.70;;;;;;5025739;28;20725;-74
2023/03/29 13:05:31;;;;;;;3.10;1.67;;;15.00;89.10;;;;;;5019615;28;20221;-75
2023/03/29 13:08:11;;;;;;;2.17;1.30;;;15.10;89.20;;;;;;5022333;28;20210;-75
2023/03/29 13:10:42;;;;;;;2.00;1.30;;;15.10;89.00;;;;;;5032967;28;20642;-75
2023/03/29 13:13:17;;;;;;;2.57;1.60;;;14.80;86.90;;;;;;5018467;28;20209;-75
2023/03/29 13:15:45;;;;;;;4.50;1.70;;;14.80;89.00;;;;;;5012974;28;20244;-74
2023/03/29 13:18:37;;;;;;;3.90;1.80;;;14.60;88.80;;;;;;5001542;28;20300;-75